createdAt,value
2019-03-22T00:00:36.372Z,85.14
2019-03-22T00:03:08.616Z,84.80
2019-03-22T00:05:40.781Z,84.43
2019-03-22T00:08:12.903Z,84.35
2019-03-22T00:10:45.065Z,83.35
2019-03-22T00:13:17.348Z,82.97
2019-03-22T00:15:49.449Z,82.56
2019-03-22T00:18:21.490Z,81.92
2019-03-22T00:20:53.754Z,82.17
2019-03-22T00:23:25.868Z,81.96
2019-03-22T00:25:57.925Z,81.88
2019-03-22T00:28:30.003Z,82.46
2019-03-22T00:31:02.011Z,82.21
2019-03-22T00:33:34.246Z,82.30
2019-03-22T00:36:06.441Z,82.26
2019-03-22T00:38:38.586Z,82.62
2019-03-22T00:41:10.777Z,82.88
2019-03-22T00:43:42.853Z,83.28
2019-03-22T00:46:15.089Z,84.13
2019-03-22T00:48:47.238Z,84.79
2019-03-22T00:51:33.083Z,84.73
2019-03-22T00:54:04.386Z,84.75
2019-03-22T00:56:36.572Z,85.15
2019-03-22T00:59:08.800Z,85.60
2019-03-22T01:01:41.192Z,85.89
2019-03-22T01:04:13.368Z,86.28
2019-03-22T01:06:48.119Z,86.13
2019-03-22T01:09:20.328Z,86.40
2019-03-22T01:11:52.465Z,85.97
2019-03-22T01:14:24.741Z,85.99
2019-03-22T01:16:56.926Z,85.73
2019-03-22T01:19:29.122Z,85.81
2019-03-22T01:22:01.212Z,85.66
2019-03-22T01:24:33.339Z,85.36
2019-03-22T01:27:05.506Z,85.49
2019-03-22T01:29:37.569Z,85.35
2019-03-22T01:32:09.851Z,85.01
2019-03-22T01:34:42.027Z,85.06
2019-03-22T01:37:14.213Z,85.07
2019-03-22T01:39:46.299Z,85.03
2019-03-22T01:42:18.487Z,85.25
2019-03-22T01:44:50.571Z,85.55
2019-03-22T01:47:22.803Z,85.56
2019-03-22T01:49:54.957Z,85.92
2019-03-22T01:52:27.061Z,86.14
2019-03-22T01:54:59.045Z,86.31
2019-03-22T01:57:31.156Z,86.39
2019-03-22T02:00:03.242Z,86.73
2019-03-22T02:02:35.491Z,87.08
2019-03-22T02:05:08.505Z,87.05
2019-03-22T02:07:40.648Z,87.12
2019-03-22T02:10:13.402Z,87.41
2019-03-22T02:12:45.574Z,87.63
2019-03-22T02:15:18.104Z,87.88
2019-03-22T02:17:50.258Z,88.08
2019-03-22T02:20:24.102Z,88.28
2019-03-22T02:22:56.376Z,88.45
2019-03-22T02:25:28.800Z,88.57
2019-03-22T02:28:04.423Z,88.60
2019-03-22T02:30:34.905Z,88.48
2019-03-22T02:33:07.311Z,88.55
2019-03-22T02:35:39.673Z,88.66
2019-03-22T02:38:11.842Z,88.72
2019-03-22T02:40:44.159Z,88.79
2019-03-22T02:43:16.806Z,88.67
2019-03-22T02:45:48.971Z,88.80
2019-03-22T02:48:21.159Z,88.61
2019-03-22T02:50:56.179Z,88.63
2019-03-22T02:53:27.342Z,88.89
2019-03-22T02:55:59.538Z,89.23
2019-03-22T02:58:31.820Z,89.33
2019-03-22T03:01:03.989Z,89.28
2019-03-22T03:03:36.234Z,89.31
2019-03-22T03:06:08.402Z,89.45
2019-03-22T03:08:40.603Z,89.17
2019-03-22T03:11:12.674Z,89.12
2019-03-22T03:13:44.882Z,89.32
2019-03-22T03:16:17.003Z,89.27
2019-03-22T03:18:49.116Z,89.44
2019-03-22T03:21:21.393Z,89.48
2019-03-22T03:23:53.835Z,89.55
2019-03-22T03:26:26.102Z,89.62
2019-03-22T03:28:58.202Z,89.60
2019-03-22T03:31:30.486Z,89.59
2019-03-22T03:34:02.585Z,89.62
2019-03-22T03:36:35.163Z,89.56
2019-03-22T03:39:09.574Z,89.49
2019-03-22T03:41:41.735Z,89.35
2019-03-22T03:44:14.126Z,89.54
2019-03-22T03:46:46.460Z,89.80
2019-03-22T03:49:18.823Z,89.91
2019-03-22T03:51:51.112Z,89.74
2019-03-22T03:54:23.203Z,89.64
2019-03-22T03:56:55.448Z,89.61
2019-03-22T03:59:27.686Z,89.74
2019-03-22T04:01:59.787Z,89.77
2019-03-22T04:04:32.030Z,89.76
2019-03-22T04:07:04.457Z,89.77
2019-03-22T04:09:36.867Z,89.89
2019-03-22T04:12:09.222Z,89.94
2019-03-22T04:14:41.381Z,89.97
2019-03-22T04:17:13.607Z,89.98
2019-03-22T04:19:45.869Z,90.11
2019-03-22T04:22:18.222Z,90.15
2019-03-22T04:24:50.381Z,90.43
2019-03-22T04:27:22.624Z,90.76
2019-03-22T04:29:54.774Z,90.49
2019-03-22T04:32:29.841Z,90.27
2019-03-22T04:35:02.107Z,90.03
2019-03-22T04:37:34.444Z,89.97
2019-03-22T04:40:10.940Z,90.06
2019-03-22T04:42:43.211Z,90.14
2019-03-22T04:45:15.447Z,90.17
2019-03-22T04:47:50.167Z,90.22
2019-03-22T04:50:23.416Z,90.18
2019-03-22T04:52:56.298Z,90.19
2019-03-22T04:55:29.442Z,90.16
2019-03-22T04:58:04.728Z,90.24
2019-03-22T05:00:38.449Z,90.20
2019-03-22T05:03:13.628Z,90.13
2019-03-22T05:05:49.755Z,90.18
2019-03-22T05:08:24.054Z,90.32
2019-03-22T05:10:58.807Z,90.26
2019-03-22T05:13:33.833Z,90.14
2019-03-22T05:16:08.373Z,90.14
2019-03-22T05:18:44.424Z,90.21
2019-03-22T05:21:20.359Z,90.01
2019-03-22T05:23:56.264Z,89.96
2019-03-22T05:26:32.427Z,89.98
2019-03-22T05:29:07.134Z,90.07
2019-03-22T05:32:15.032Z,90.50
2019-03-22T05:34:47.118Z,90.35
2019-03-22T05:37:21.826Z,90.33
2019-03-22T05:39:54.022Z,90.47
2019-03-22T05:42:26.223Z,90.58
2019-03-22T05:44:58.594Z,90.41
2019-03-22T05:47:30.748Z,90.29
2019-03-22T05:50:02.884Z,90.17
2019-03-22T05:52:35.056Z,90.15
2019-03-22T05:55:08.183Z,90.24
2019-03-22T05:57:40.481Z,90.36
2019-03-22T06:00:14.848Z,90.49
2019-03-22T06:02:47.117Z,90.83
2019-03-22T06:05:19.359Z,90.72
2019-03-22T06:07:51.631Z,90.71
2019-03-22T06:10:23.785Z,90.80
2019-03-22T06:12:55.949Z,90.79
2019-03-22T06:15:28.125Z,90.93
2019-03-22T06:18:00.283Z,90.99
2019-03-22T06:20:32.623Z,90.93
2019-03-22T06:23:04.886Z,90.89
2019-03-22T06:25:56.018Z,90.88
2019-03-22T06:28:30.628Z,90.52
2019-03-22T06:31:03.115Z,90.52
2019-03-22T06:33:35.387Z,90.39
2019-03-22T06:36:07.802Z,90.09
2019-03-22T06:38:40.117Z,89.40
2019-03-22T06:41:12.470Z,89.42
2019-03-22T06:43:44.630Z,89.17
2019-03-22T06:46:16.847Z,89.24
2019-03-22T06:48:49.089Z,89.02
2019-03-22T06:51:21.347Z,88.97
2019-03-22T06:53:53.786Z,88.29
2019-03-22T06:56:26.195Z,88.55
2019-03-22T06:58:58.445Z,88.33
2019-03-22T07:01:30.617Z,87.23
2019-03-22T07:04:02.937Z,85.92
2019-03-22T07:06:35.116Z,86.49
2019-03-22T07:09:12.053Z,83.42
2019-03-22T07:11:44.536Z,77.60
2019-03-22T07:14:16.949Z,77.59
2019-03-22T07:16:50.074Z,78.47
2019-03-22T07:19:22.599Z,72.58
2019-03-22T07:21:54.845Z,71.61
2019-03-22T07:24:27.121Z,69.25
2019-03-22T07:26:59.208Z,63.01
2019-03-22T07:29:31.742Z,56.71
2019-03-22T07:32:04.132Z,54.54
2019-03-22T07:34:36.999Z,54.65
2019-03-22T07:37:09.425Z,54.07
2019-03-22T07:39:42.137Z,52.69
2019-03-22T07:42:14.433Z,53.16
2019-03-22T07:44:49.124Z,51.26
2019-03-22T07:47:21.621Z,52.22
2019-03-22T07:49:54.128Z,52.09
2019-03-22T07:52:47.572Z,53.26
2019-03-22T07:58:22.210Z,53.82
2019-03-22T08:00:54.507Z,52.01
2019-03-22T08:03:26.868Z,51.52
2019-03-22T08:05:59.005Z,51.76
2019-03-22T08:08:31.179Z,49.89
2019-03-22T08:11:04.923Z,48.65
2019-03-22T08:14:31.741Z,50.21
2019-03-22T08:17:05.743Z,50.36
2019-03-22T08:19:40.581Z,49.83
2019-03-22T08:22:30.744Z,48.79
2019-03-22T08:25:06.026Z,46.61
2019-03-22T08:27:41.099Z,44.39
2019-03-22T08:30:14.261Z,44.93
2019-03-22T08:32:50.664Z,45.08
2019-03-22T08:35:23.141Z,44.36
2019-03-22T08:37:55.363Z,42.59
2019-03-22T08:40:27.665Z,41.03
2019-03-22T08:43:00.029Z,40.61
2019-03-22T08:45:32.196Z,39.92
2019-03-22T08:48:04.442Z,40.81
2019-03-22T08:50:36.846Z,41.92
2019-03-22T08:53:09.091Z,42.35
2019-03-22T08:55:41.799Z,40.95
2019-03-22T08:58:14.054Z,39.01
2019-03-22T09:00:56.741Z,40.05
2019-03-22T09:03:20.190Z,40.03
2019-03-22T09:05:54.816Z,38.43
2019-03-22T09:08:27.043Z,38.64
2019-03-22T09:10:59.472Z,38.23
2019-03-22T09:13:32.095Z,38.51
2019-03-22T09:16:04.526Z,39.32
2019-03-22T09:18:36.660Z,39.53
2019-03-22T09:21:27.846Z,38.88
2019-03-22T09:24:00.557Z,38.90
2019-03-22T09:26:32.770Z,37.61
2019-03-22T09:29:05.041Z,37.42
2019-03-22T09:31:37.153Z,38.48
2019-03-22T09:34:09.624Z,36.81
2019-03-22T09:36:41.822Z,39.68
2019-03-22T09:39:14.193Z,37.43
2019-03-22T09:41:46.340Z,38.42
2019-03-22T09:44:28.104Z,41.23
2019-03-22T09:47:02.090Z,41.30
2019-03-22T09:49:37.392Z,43.20
2019-03-22T09:52:13.083Z,43.54
2019-03-22T09:54:47.563Z,45.34
2019-03-22T09:57:22.633Z,42.00
2019-03-22T09:59:59.060Z,42.75
2019-03-22T10:02:31.286Z,44.19
2019-03-22T10:05:03.430Z,44.88
2019-03-22T10:07:35.512Z,45.09
2019-03-22T10:10:09.129Z,43.85
2019-03-22T10:12:41.319Z,43.85
2019-03-22T10:15:13.615Z,44.90
2019-03-22T10:17:45.879Z,45.34
2019-03-22T10:20:18.153Z,44.77
2019-03-22T10:22:50.269Z,45.16
2019-03-22T10:25:22.585Z,44.15
2019-03-22T10:27:54.782Z,44.79
2019-03-22T10:30:26.932Z,45.15
2019-03-22T10:32:59.412Z,44.32
2019-03-22T10:35:31.520Z,44.91
2019-03-22T10:38:06.252Z,44.82
2019-03-22T10:40:37.343Z,45.41
2019-03-22T10:43:09.437Z,44.75
2019-03-22T10:45:41.737Z,45.14
2019-03-22T10:48:14.128Z,44.25
2019-03-22T10:51:08.156Z,42.90
2019-03-22T10:53:40.264Z,43.27
2019-03-22T10:56:12.514Z,44.16
2019-03-22T10:58:44.537Z,40.22
2019-03-22T11:01:16.638Z,41.22
2019-03-22T11:03:48.825Z,42.48
2019-03-22T11:06:26.269Z,43.96
2019-03-22T11:08:55.868Z,44.03
2019-03-22T11:11:29.951Z,42.06
2019-03-22T11:14:01.692Z,41.57
2019-03-22T11:16:33.849Z,41.82
2019-03-22T11:19:06.272Z,42.29
2019-03-22T11:21:38.617Z,41.35
2019-03-22T11:24:10.932Z,41.18
2019-03-22T11:26:42.999Z,41.13
2019-03-22T11:29:15.099Z,40.45
2019-03-22T11:31:47.075Z,40.59
2019-03-22T11:34:19.094Z,40.94
2019-03-22T11:36:51.207Z,40.02
2019-03-22T11:39:23.269Z,39.33
2019-03-22T11:41:55.450Z,37.84
2019-03-22T11:44:27.594Z,39.35
2019-03-22T11:46:59.690Z,40.35
2019-03-22T11:49:31.807Z,41.27
2019-03-22T11:52:05.655Z,40.54
2019-03-22T11:54:37.780Z,39.53
2019-03-22T11:57:09.846Z,37.97
2019-03-22T11:59:41.922Z,37.79
2019-03-22T12:02:22.126Z,39.10
2019-03-22T12:04:48.656Z,38.30
2019-03-22T12:07:20.780Z,38.80
2019-03-22T12:09:53.000Z,39.10
2019-03-22T12:12:25.081Z,37.67
2019-03-22T12:14:57.195Z,37.65
2019-03-22T12:17:30.883Z,37.67
2019-03-22T12:20:04.912Z,38.54
2019-03-22T12:22:38.486Z,37.38
2019-03-22T12:25:11.947Z,37.40
2019-03-22T12:27:44.067Z,37.04
2019-03-22T12:30:17.873Z,36.95
2019-03-22T12:32:50.103Z,36.87
2019-03-22T12:35:22.366Z,37.62
2019-03-22T12:37:54.370Z,38.05
2019-03-22T12:40:26.756Z,37.60
2019-03-22T12:42:58.883Z,38.40
2019-03-22T12:45:32.077Z,40.81
2019-03-22T12:48:04.472Z,37.66
2019-03-22T12:50:36.480Z,36.89
2019-03-22T12:53:08.631Z,36.05
2019-03-22T12:55:41.047Z,36.06
2019-03-22T12:58:13.048Z,35.70
2019-03-22T13:00:45.117Z,36.08
2019-03-22T13:03:17.280Z,37.56
2019-03-22T13:05:49.391Z,37.72
2019-03-22T13:08:21.498Z,35.99
2019-03-22T13:10:53.608Z,35.88
2019-03-22T13:13:25.655Z,36.01
2019-03-22T13:15:57.763Z,35.42
2019-03-22T13:18:30.325Z,35.55
2019-03-22T13:21:02.428Z,35.58
2019-03-22T13:23:34.408Z,36.57
2019-03-22T13:26:08.779Z,36.57
2019-03-22T13:28:40.900Z,35.79
2019-03-22T13:31:13.026Z,35.48
2019-03-22T13:33:45.049Z,34.59
2019-03-22T13:36:17.218Z,35.20
2019-03-22T13:38:49.235Z,34.89
2019-03-22T13:41:21.553Z,34.39
2019-03-22T13:43:53.661Z,34.35
2019-03-22T13:46:25.800Z,33.83
2019-03-22T13:48:57.869Z,33.21
2019-03-22T13:51:30.032Z,33.59
2019-03-22T13:54:02.335Z,33.93
2019-03-22T13:56:34.525Z,33.83
2019-03-22T13:59:06.818Z,33.19
2019-03-22T14:01:38.949Z,33.83
2019-03-22T14:04:13.651Z,33.55
2019-03-22T14:06:45.761Z,33.33
2019-03-22T14:09:17.831Z,33.84
2019-03-22T14:11:50.003Z,33.51
2019-03-22T14:14:22.278Z,34.24
2019-03-22T14:16:54.364Z,33.74
2019-03-22T14:19:26.499Z,34.40
2019-03-22T14:22:00.669Z,37.47
2019-03-22T14:24:32.865Z,38.19
2019-03-22T14:27:05.034Z,35.24
2019-03-22T14:29:37.083Z,36.49
2019-03-22T14:32:10.775Z,37.11
2019-03-22T14:34:42.919Z,36.59
2019-03-22T14:37:14.977Z,36.59
2019-03-22T14:39:47.149Z,38.19
2019-03-22T14:42:19.218Z,39.44
2019-03-22T14:44:51.281Z,37.29
2019-03-22T14:47:23.611Z,35.54
2019-03-22T14:49:55.670Z,36.18
2019-03-22T14:52:27.824Z,38.90
2019-03-22T14:54:59.894Z,39.35
2019-03-22T14:57:32.131Z,39.08
2019-03-22T15:00:04.245Z,36.63
2019-03-22T15:02:36.369Z,38.26
2019-03-22T15:05:09.493Z,38.24
2019-03-22T15:07:41.630Z,39.76
2019-03-22T15:10:15.300Z,37.93
2019-03-22T15:12:47.402Z,36.44
2019-03-22T15:15:44.752Z,35.78
2019-03-22T15:18:35.873Z,36.77
2019-03-22T15:21:29.716Z,35.51
2019-03-22T15:24:26.443Z,37.05
2019-03-22T15:27:15.658Z,37.85
2019-03-22T15:30:06.485Z,37.35
2019-03-22T15:33:03.294Z,35.56
2019-03-22T15:35:57.232Z,36.97
2019-03-22T15:39:00.507Z,36.36
2019-03-22T15:41:32.647Z,35.27
2019-03-22T15:44:04.865Z,35.13
2019-03-22T15:46:37.011Z,35.42
2019-03-22T15:49:09.208Z,35.51
2019-03-22T15:51:41.232Z,37.14
2019-03-22T15:54:14.406Z,36.61
2019-03-22T15:56:46.414Z,35.93
2019-03-22T15:59:21.653Z,34.83
2019-03-22T16:01:53.723Z,32.17
2019-03-22T16:04:25.733Z,32.74
2019-03-22T16:06:57.861Z,32.48
2019-03-22T16:09:31.089Z,32.26
2019-03-22T16:12:03.208Z,32.31
2019-03-22T16:14:35.431Z,31.37
2019-03-22T16:17:07.552Z,32.19
2019-03-22T16:19:39.742Z,32.48
2019-03-22T16:22:11.874Z,31.50
2019-03-22T16:24:43.864Z,31.69
2019-03-22T16:27:15.950Z,31.72
2019-03-22T16:29:47.985Z,32.03
2019-03-22T16:32:20.703Z,31.86
2019-03-22T16:34:52.755Z,30.95
2019-03-22T16:37:26.462Z,31.19
2019-03-22T16:39:58.532Z,30.65
2019-03-22T16:42:30.663Z,31.02
2019-03-22T16:45:02.757Z,31.55
2019-03-22T16:47:34.950Z,31.56
2019-03-22T16:50:14.206Z,31.97
2019-03-22T16:52:46.276Z,32.96
2019-03-22T16:55:18.346Z,31.37
2019-03-22T16:57:50.767Z,32.72
2019-03-22T17:00:23.905Z,33.54
2019-03-22T17:02:55.913Z,34.05
2019-03-22T17:05:27.962Z,34.20
2019-03-22T17:08:00.062Z,34.32
2019-03-22T17:10:32.081Z,35.16
2019-03-22T17:13:04.259Z,36.12
2019-03-22T17:15:36.382Z,36.76
2019-03-22T17:18:08.883Z,36.32
2019-03-22T17:20:40.951Z,36.68
2019-03-22T17:23:12.924Z,36.65
2019-03-22T17:25:45.088Z,37.16
2019-03-22T17:28:17.095Z,37.26
2019-03-22T17:30:49.151Z,37.91
2019-03-22T17:33:21.917Z,38.08
2019-03-22T17:35:53.947Z,38.27
2019-03-22T17:38:28.811Z,39.35
2019-03-22T17:41:00.871Z,40.03
2019-03-22T17:43:33.062Z,39.95
2019-03-22T17:46:05.142Z,40.23
2019-03-22T17:48:37.292Z,40.11
2019-03-22T17:51:09.269Z,40.83
2019-03-22T17:53:41.415Z,40.51
2019-03-22T17:56:13.560Z,40.87
2019-03-22T17:58:45.693Z,41.62
2019-03-22T18:01:17.771Z,41.38
2019-03-22T18:03:49.805Z,40.98
2019-03-22T18:06:21.880Z,41.51
2019-03-22T18:08:53.916Z,41.58
2019-03-22T18:11:28.461Z,41.50
2019-03-22T18:14:00.529Z,41.95
2019-03-22T18:16:32.531Z,42.47
2019-03-22T18:19:04.916Z,42.94
2019-03-22T18:21:36.978Z,43.35
2019-03-22T18:24:09.049Z,43.71
2019-03-22T18:26:41.243Z,44.34
2019-03-22T18:29:13.324Z,45.53
2019-03-22T18:31:45.335Z,44.97
2019-03-22T18:34:17.367Z,45.24
2019-03-22T18:36:49.379Z,45.24
2019-03-22T18:39:21.413Z,46.03
2019-03-22T18:41:53.453Z,46.19
2019-03-22T18:44:25.427Z,46.47
2019-03-22T18:46:57.507Z,47.67
2019-03-22T18:49:29.684Z,49.06
2019-03-22T18:52:01.731Z,50.28
2019-03-22T18:54:33.816Z,51.07
2019-03-22T18:57:05.926Z,51.36
2019-03-22T18:59:38.034Z,51.92
2019-03-22T19:02:10.195Z,52.39
2019-03-22T19:04:44.399Z,52.57
2019-03-22T19:07:15.872Z,53.06
2019-03-22T19:09:48.000Z,52.72
2019-03-22T19:12:20.086Z,53.15
2019-03-22T19:14:52.158Z,53.73
2019-03-22T19:17:46.711Z,54.54
2019-03-22T19:20:47.939Z,55.22
2019-03-22T19:23:21.027Z,55.31
2019-03-22T19:25:55.940Z,54.90
2019-03-22T19:28:42.317Z,54.95
2019-03-22T19:34:25.418Z,56.41
2019-03-22T19:39:34.111Z,57.54
2019-03-22T19:42:06.463Z,58.00
2019-03-22T19:44:41.450Z,58.32
2019-03-22T19:47:13.446Z,58.62
2019-03-22T19:49:45.527Z,59.07
2019-03-22T19:52:20.173Z,59.14
2019-03-22T19:54:53.675Z,59.64
2019-03-22T19:57:26.012Z,60.27
2019-03-22T20:00:00.476Z,59.89
2019-03-22T20:03:31.773Z,60.34
2019-03-22T20:06:03.924Z,60.77
2019-03-22T20:08:36.114Z,58.90
2019-03-22T20:11:09.704Z,59.90
2019-03-22T20:13:43.436Z,60.27
2019-03-22T20:16:20.015Z,60.73
2019-03-22T20:18:50.019Z,59.98
2019-03-22T20:21:31.198Z,60.97
2019-03-22T20:24:03.469Z,60.90
2019-03-22T20:26:35.692Z,61.50
2019-03-22T20:29:07.960Z,61.11
2019-03-22T20:31:45.725Z,61.91
2019-03-22T20:34:18.001Z,62.20
2019-03-22T20:36:52.051Z,62.60
2019-03-22T20:39:24.996Z,63.31
2019-03-22T20:41:57.257Z,63.58
2019-03-22T20:44:33.796Z,63.88
2019-03-22T20:47:04.582Z,63.75
2019-03-22T20:49:38.594Z,63.60
2019-03-22T20:52:15.369Z,63.08
2019-03-22T20:54:52.680Z,63.43
2019-03-22T20:57:26.207Z,62.60
2019-03-22T20:59:58.204Z,62.48
2019-03-22T21:02:30.398Z,62.93
2019-03-22T21:05:05.367Z,63.07
2019-03-22T21:07:37.629Z,62.45
2019-03-22T21:10:10.368Z,62.85
2019-03-22T21:12:42.540Z,63.49
2019-03-22T21:15:23.809Z,64.13
2019-03-22T21:17:50.300Z,64.43
2019-03-22T21:20:22.375Z,64.66
2019-03-22T21:22:54.487Z,64.50
2019-03-22T21:25:26.670Z,65.75
2019-03-22T21:28:01.197Z,66.51
2019-03-22T21:30:33.276Z,67.22
2019-03-22T21:33:17.955Z,66.84
2019-03-22T21:35:50.925Z,67.16
2019-03-22T21:38:24.130Z,67.12
2019-03-22T21:41:05.126Z,67.73
2019-03-22T21:43:40.229Z,68.36
2019-03-22T21:46:12.308Z,67.49
2019-03-22T21:48:45.168Z,66.61
2019-03-22T21:51:17.394Z,66.68
2019-03-22T21:53:50.586Z,65.66
2019-03-22T21:56:24.994Z,65.13
2019-03-22T21:58:58.491Z,63.78
2019-03-22T22:01:31.823Z,64.42
2019-03-22T22:04:06.881Z,64.79
2019-03-22T22:06:38.831Z,64.85
2019-03-22T22:09:11.144Z,64.06
2019-03-22T22:11:43.880Z,63.56
2019-03-22T22:14:16.297Z,63.70
2019-03-22T22:16:48.473Z,62.96
2019-03-22T22:19:20.993Z,61.48
2019-03-22T22:21:53.557Z,61.40
2019-03-22T22:24:25.732Z,61.47
2019-03-22T22:26:57.869Z,62.23
2019-03-22T22:29:29.961Z,64.07
2019-03-22T22:32:02.346Z,62.74
2019-03-22T22:34:34.632Z,61.16
2019-03-22T22:37:07.033Z,62.87
2019-03-22T22:39:39.373Z,62.83
2019-03-22T22:42:12.215Z,62.06
2019-03-22T22:44:44.499Z,61.60
2019-03-22T22:47:16.955Z,61.18
2019-03-22T22:49:49.205Z,60.50
2019-03-22T22:52:21.296Z,61.03
2019-03-22T22:54:53.365Z,60.78
2019-03-22T22:57:25.643Z,60.75
2019-03-22T22:59:58.351Z,60.60
2019-03-22T23:02:30.439Z,61.12
2019-03-22T23:05:02.774Z,61.25
2019-03-22T23:07:34.899Z,61.44
2019-03-22T23:10:07.604Z,62.35
2019-03-22T23:12:39.751Z,63.34
2019-03-22T23:15:12.534Z,64.20
2019-03-22T23:17:44.685Z,64.73
2019-03-22T23:20:16.915Z,64.90
2019-03-22T23:22:49.078Z,65.61
2019-03-22T23:25:21.166Z,65.19
2019-03-22T23:27:53.203Z,64.67
2019-03-22T23:30:25.275Z,63.78
2019-03-22T23:32:57.979Z,63.50
2019-03-22T23:35:30.078Z,63.14
2019-03-22T23:38:03.258Z,63.13
2019-03-22T23:40:35.275Z,61.33
2019-03-22T23:43:07.370Z,61.04
2019-03-22T23:45:39.377Z,61.03
2019-03-22T23:48:11.498Z,59.81
2019-03-22T23:50:43.670Z,59.73
2019-03-22T23:53:15.863Z,59.49
2019-03-22T23:55:48.113Z,60.45
